createdAt,value
2022-09-22T00:01:32.248Z,5.90
2022-09-22T00:04:06.120Z,6.05
2022-09-22T00:06:37.013Z,6.03
2022-09-22T00:09:06.651Z,6.00
2022-09-22T00:11:37.512Z,5.91
2022-09-22T00:14:08.421Z,5.09
2022-09-22T00:16:39.503Z,4.53
2022-09-22T00:19:10.506Z,5.81
2022-09-22T00:21:38.480Z,5.15
2022-09-22T00:24:08.158Z,5.82
2022-09-22T00:26:38.043Z,5.87
2022-09-22T00:29:08.079Z,5.88
2022-09-22T00:31:37.523Z,5.52
2022-09-22T00:34:06.127Z,5.66
2022-09-22T00:36:35.750Z,5.07
2022-09-22T00:39:03.947Z,5.66
2022-09-22T00:41:34.121Z,5.66
2022-09-22T00:44:40.693Z,5.72
2022-09-22T00:47:32.440Z,5.72
2022-09-22T00:50:06.955Z,5.66
2022-09-22T00:52:41.911Z,5.56
2022-09-22T00:55:30.872Z,5.17
2022-09-22T00:58:00.962Z,5.46
2022-09-22T01:00:28.985Z,5.54
2022-09-22T01:03:00.500Z,5.48
2022-09-22T01:05:31.454Z,4.56
2022-09-22T01:07:59.719Z,5.41
2022-09-22T01:10:28.993Z,5.36
2022-09-22T01:13:16.128Z,5.48
2022-09-22T01:15:52.062Z,5.46
2022-09-22T01:18:27.017Z,5.47
2022-09-22T01:21:24.942Z,4.49
2022-09-22T01:24:23.871Z,5.35
2022-09-22T01:27:41.016Z,5.44
2022-09-22T01:30:28.615Z,5.38
2022-09-22T01:33:14.952Z,5.36
2022-09-22T01:35:53.520Z,5.30
2022-09-22T01:38:31.638Z,4.61
2022-09-22T01:41:04.258Z,3.99
2022-09-22T01:43:39.374Z,4.33
2022-09-22T01:46:14.812Z,5.29
2022-09-22T01:48:46.427Z,5.23
2022-09-22T01:51:19.594Z,4.36
2022-09-22T01:53:53.572Z,5.21
2022-09-22T01:56:22.984Z,5.13
2022-09-22T01:58:53.926Z,4.99
2022-09-22T02:01:26.610Z,5.18
2022-09-22T02:03:59.875Z,4.94
2022-09-22T02:06:33.125Z,4.38
2022-09-22T02:09:05.834Z,5.10
2022-09-22T02:11:34.379Z,5.02
2022-09-22T02:14:03.603Z,5.06
2022-09-22T02:16:33.890Z,4.72
2022-09-22T02:19:12.459Z,5.08
2022-09-22T02:21:44.465Z,5.00
2022-09-22T02:24:28.909Z,5.00
2022-09-22T02:26:58.751Z,4.18
2022-09-22T02:29:31.350Z,5.01
2022-09-22T02:32:03.887Z,4.22
2022-09-22T02:34:32.502Z,4.10
2022-09-22T02:37:07.752Z,5.04
2022-09-22T02:39:43.326Z,5.02
2022-09-22T02:42:21.630Z,4.29
2022-09-22T02:44:57.673Z,4.38
2022-09-22T02:47:33.754Z,4.44
2022-09-22T02:50:03.841Z,4.90
2022-09-22T02:52:31.611Z,4.86
2022-09-22T02:54:59.475Z,3.37
2022-09-22T02:57:27.573Z,4.79
2022-09-22T02:59:55.395Z,4.74
2022-09-22T03:02:23.564Z,4.74
2022-09-22T03:04:53.924Z,4.78
2022-09-22T03:07:21.959Z,4.77
2022-09-22T03:09:50.102Z,4.65
2022-09-22T03:12:18.588Z,4.75
2022-09-22T03:14:46.556Z,4.78
2022-09-22T03:17:14.374Z,4.77
2022-09-22T03:19:42.464Z,4.52
2022-09-22T03:22:11.933Z,4.02
2022-09-22T03:24:39.807Z,4.70
2022-09-22T03:27:07.901Z,4.70
2022-09-22T03:29:35.740Z,4.49
2022-09-22T03:32:03.967Z,4.63
2022-09-22T03:34:31.984Z,4.59
2022-09-22T03:36:59.875Z,4.42
2022-09-22T03:39:29.433Z,4.45
2022-09-22T03:41:57.692Z,4.40
2022-09-22T03:44:27.612Z,4.18
2022-09-22T03:46:55.490Z,1.84
2022-09-22T03:49:23.481Z,4.36
2022-09-22T03:51:51.402Z,4.44
2022-09-22T03:54:19.458Z,4.22
2022-09-22T03:56:48.809Z,4.14
2022-09-22T03:59:17.527Z,4.30
2022-09-22T04:01:45.732Z,4.38
2022-09-22T04:04:13.752Z,4.38
2022-09-22T04:06:42.106Z,4.39
2022-09-22T04:09:10.147Z,2.98
2022-09-22T04:11:38.111Z,4.38
2022-09-22T04:14:07.510Z,4.38
2022-09-22T04:16:35.481Z,4.32
2022-09-22T04:19:05.063Z,4.42
2022-09-22T04:21:33.015Z,4.53
2022-09-22T04:24:01.055Z,4.51
2022-09-22T04:26:28.997Z,3.20
2022-09-22T04:28:56.894Z,4.59
2022-09-22T04:31:26.114Z,4.14
2022-09-22T04:33:54.138Z,4.57
2022-09-22T04:36:22.101Z,4.44
2022-09-22T04:38:50.015Z,4.54
2022-09-22T04:41:17.928Z,4.63
2022-09-22T04:43:45.815Z,4.64
2022-09-22T04:46:13.928Z,4.60
2022-09-22T04:48:43.139Z,4.71
2022-09-22T04:51:11.040Z,4.45
2022-09-22T04:53:38.898Z,4.77
2022-09-22T04:56:07.254Z,4.84
2022-09-22T04:58:35.131Z,4.82
2022-09-22T05:01:03.782Z,4.91
2022-09-22T05:03:32.029Z,4.86
2022-09-22T05:06:01.410Z,4.76
2022-09-22T05:08:29.338Z,4.71
2022-09-22T05:10:57.799Z,3.99
2022-09-22T05:13:25.905Z,4.15
2022-09-22T05:15:54.051Z,3.68
2022-09-22T05:18:22.127Z,4.57
2022-09-22T05:20:50.097Z,4.68
2022-09-22T05:23:19.516Z,4.72
2022-09-22T05:25:47.439Z,4.78
2022-09-22T05:28:15.469Z,4.83
2022-09-22T05:30:43.595Z,4.87
2022-09-22T05:33:11.625Z,4.84
2022-09-22T05:35:39.564Z,4.81
2022-09-22T05:38:07.476Z,4.78
2022-09-22T05:40:36.808Z,3.82
2022-09-22T05:43:04.836Z,4.91
2022-09-22T05:45:32.761Z,4.86
2022-09-22T05:48:00.747Z,5.05
2022-09-22T05:50:28.606Z,5.09
2022-09-22T05:53:04.905Z,5.13
2022-09-22T05:55:33.211Z,5.13
2022-09-22T05:58:03.323Z,5.06
2022-09-22T06:00:32.085Z,4.99
2022-09-22T06:03:00.139Z,4.98
2022-09-22T06:05:28.155Z,4.24
2022-09-22T06:08:00.865Z,5.20
2022-09-22T06:10:29.211Z,5.08
2022-09-22T06:13:00.545Z,5.35
2022-09-22T06:15:31.337Z,5.48
2022-09-22T06:17:59.371Z,5.52
2022-09-22T06:20:27.322Z,5.43
2022-09-22T06:22:56.601Z,4.93
2022-09-22T06:25:25.099Z,5.52
2022-09-22T06:28:02.025Z,5.50
2022-09-22T06:30:31.843Z,4.29
2022-09-22T06:33:00.015Z,5.42
2022-09-22T06:35:31.387Z,5.48
2022-09-22T06:37:59.998Z,5.52
2022-09-22T06:40:28.934Z,5.64
2022-09-22T06:43:10.513Z,5.81
2022-09-22T06:45:40.020Z,5.53
2022-09-22T06:48:10.446Z,5.06
2022-09-22T06:50:41.098Z,5.81
2022-09-22T06:53:12.428Z,5.57
2022-09-22T06:55:43.203Z,6.24
2022-09-22T06:58:11.559Z,6.18
2022-09-22T07:00:42.935Z,6.50
2022-09-22T07:03:17.753Z,6.02
2022-09-22T07:05:54.835Z,6.75
2022-09-22T07:08:23.183Z,6.61
2022-09-22T07:10:56.280Z,6.87
2022-09-22T07:13:24.403Z,7.28
2022-09-22T07:15:55.402Z,7.22
2022-09-22T07:18:23.352Z,7.44
2022-09-22T07:20:51.246Z,7.53
2022-09-22T07:23:21.262Z,7.65
2022-09-22T07:25:57.016Z,7.36
2022-09-22T07:28:25.906Z,7.62
2022-09-22T07:30:57.469Z,7.78
2022-09-22T07:33:25.517Z,8.08
2022-09-22T07:36:01.971Z,8.42
2022-09-22T07:38:36.302Z,8.57
2022-09-22T07:41:06.715Z,8.63
2022-09-22T07:43:35.252Z,8.65
2022-09-22T07:46:05.019Z,8.89
2022-09-22T07:48:42.933Z,8.84
2022-09-22T07:51:16.505Z,8.95
2022-09-22T07:53:46.072Z,9.17
2022-09-22T07:56:15.447Z,9.17
2022-09-22T07:58:45.945Z,9.08
2022-09-22T08:01:15.446Z,9.30
2022-09-22T08:03:44.177Z,9.63
2022-09-22T08:06:12.241Z,9.76
2022-09-22T08:08:42.147Z,9.90
2022-09-22T08:11:13.614Z,10.03
2022-09-22T08:13:42.602Z,10.39
2022-09-22T08:16:11.586Z,10.44
2022-09-22T08:18:41.320Z,10.46
2022-09-22T08:21:09.255Z,10.64
2022-09-22T08:23:38.114Z,10.67
2022-09-22T08:26:07.147Z,10.90
2022-09-22T08:28:36.193Z,11.04
2022-09-22T08:31:04.744Z,10.77
2022-09-22T08:33:32.724Z,10.90
2022-09-22T08:36:03.648Z,11.38
2022-09-22T08:38:34.061Z,11.52
2022-09-22T08:41:05.875Z,11.73
2022-09-22T08:43:34.047Z,11.94
2022-09-22T08:46:05.723Z,12.03
2022-09-22T08:48:52.091Z,11.80
2022-09-22T08:51:46.259Z,12.05
2022-09-22T08:54:14.030Z,12.33
2022-09-22T08:56:45.739Z,12.46
2022-09-22T08:59:18.887Z,12.64
2022-09-22T09:02:14.619Z,12.78
2022-09-22T09:05:01.348Z,12.57
2022-09-22T09:07:43.212Z,12.57
2022-09-22T09:10:32.866Z,13.04
2022-09-22T09:13:13.054Z,13.27
2022-09-22T09:15:47.172Z,13.54
2022-09-22T09:18:17.583Z,13.22
2022-09-22T09:20:46.323Z,13.69
2022-09-22T09:23:19.302Z,13.50
2022-09-22T09:25:51.998Z,13.62
2022-09-22T09:28:27.857Z,13.78
2022-09-22T09:31:07.624Z,13.70
2022-09-22T09:33:43.933Z,13.65
2022-09-22T09:38:52.048Z,13.62
2022-09-22T09:41:24.178Z,14.17
2022-09-22T09:43:54.428Z,14.42
2022-09-22T09:46:34.981Z,14.59
2022-09-22T09:49:08.145Z,14.67
2022-09-22T09:51:39.664Z,14.56
2022-09-22T09:54:17.045Z,14.76
2022-09-22T09:57:06.262Z,14.64
2022-09-22T09:59:52.727Z,14.75
2022-09-22T10:02:23.853Z,14.73
2022-09-22T10:04:54.073Z,14.73
2022-09-22T10:07:24.615Z,14.37
2022-09-22T10:09:56.115Z,15.06
2022-09-22T10:12:27.531Z,15.11
2022-09-22T10:14:57.350Z,15.32
2022-09-22T10:17:29.557Z,15.31
2022-09-22T10:20:18.735Z,15.49
2022-09-22T10:22:46.687Z,15.53
2022-09-22T10:25:24.434Z,15.33
2022-09-22T10:28:04.097Z,15.46
2022-09-22T10:30:33.277Z,15.31
2022-09-22T10:33:14.436Z,15.36
2022-09-22T10:35:44.449Z,15.74
2022-09-22T10:38:20.971Z,15.81
2022-09-22T10:40:56.900Z,15.58
2022-09-22T10:43:40.922Z,15.39
2022-09-22T10:46:32.523Z,15.50
2022-09-22T10:49:10.401Z,14.36
2022-09-22T10:51:55.011Z,15.66
2022-09-22T10:54:43.561Z,15.87
2022-09-22T10:57:24.764Z,15.49
2022-09-22T11:00:15.152Z,15.61
2022-09-22T11:03:17.582Z,15.62
2022-09-22T11:06:13.548Z,15.64
2022-09-22T11:09:07.401Z,15.73
2022-09-22T11:12:01.168Z,16.03
2022-09-22T11:14:43.458Z,16.52
2022-09-22T11:17:29.083Z,15.33
2022-09-22T11:20:23.224Z,16.39
2022-09-22T11:23:11.633Z,16.07
2022-09-22T11:25:51.731Z,16.24
2022-09-22T11:28:34.835Z,16.23
2022-09-22T11:31:04.587Z,16.16
2022-09-22T11:33:50.613Z,16.50
2022-09-22T11:36:39.615Z,16.51
2022-09-22T11:39:19.864Z,16.42
2022-09-22T11:41:51.247Z,16.65
2022-09-22T11:44:33.817Z,16.62
2022-09-22T11:47:31.534Z,16.69
2022-09-22T11:50:36.540Z,16.87
2022-09-22T11:53:34.213Z,16.76
2022-09-22T11:56:16.655Z,15.97
2022-09-22T11:58:46.040Z,16.54
2022-09-22T12:01:19.334Z,16.55
2022-09-22T12:03:54.526Z,16.30
2022-09-22T12:06:27.032Z,16.01
2022-09-22T12:09:01.191Z,15.89
2022-09-22T12:11:30.676Z,15.82
2022-09-22T12:14:00.279Z,15.78
2022-09-22T12:16:41.822Z,15.76
2022-09-22T12:19:24.455Z,15.71
2022-09-22T12:21:58.902Z,15.60
2022-09-22T12:24:27.034Z,15.16
2022-09-22T12:26:55.260Z,14.39
2022-09-22T12:29:27.572Z,15.61
2022-09-22T12:31:57.857Z,15.29
2022-09-22T12:34:27.941Z,15.75
2022-09-22T12:36:59.448Z,15.57
2022-09-22T12:39:31.115Z,15.86
2022-09-22T12:42:01.200Z,15.74
2022-09-22T12:44:33.396Z,15.60
2022-09-22T12:47:05.453Z,16.11
2022-09-22T12:49:35.119Z,15.70
2022-09-22T12:52:03.335Z,16.09
2022-09-22T12:54:40.446Z,16.11
2022-09-22T12:57:29.244Z,15.99
2022-09-22T13:00:20.654Z,15.90
2022-09-22T13:02:49.888Z,15.85
2022-09-22T13:05:46.541Z,15.95
2022-09-22T13:08:23.901Z,15.28
2022-09-22T13:11:01.717Z,14.86
2022-09-22T13:13:46.764Z,15.68
2022-09-22T13:16:35.594Z,16.12
2022-09-22T13:19:05.713Z,15.95
2022-09-22T13:21:35.672Z,16.23
2022-09-22T13:24:07.499Z,16.30
2022-09-22T13:26:37.516Z,15.96
2022-09-22T13:29:11.600Z,15.70
2022-09-22T13:31:42.876Z,16.15
2022-09-22T13:34:22.335Z,16.20
2022-09-22T13:36:54.278Z,16.26
2022-09-22T13:39:24.994Z,16.28
2022-09-22T13:41:57.017Z,15.53
2022-09-22T13:44:30.060Z,16.15
2022-09-22T13:47:00.035Z,16.09
2022-09-22T13:49:36.983Z,16.06
2022-09-22T13:52:09.867Z,16.09
2022-09-22T13:54:39.477Z,15.41
2022-09-22T13:57:19.352Z,16.19
2022-09-22T13:59:48.074Z,16.22
2022-09-22T14:02:22.104Z,16.07
2022-09-22T14:04:52.436Z,16.17
2022-09-22T14:07:23.219Z,16.14
2022-09-22T14:09:51.715Z,15.90
2022-09-22T14:12:21.179Z,15.96
2022-09-22T14:14:49.151Z,15.95
2022-09-22T14:17:21.881Z,15.75
2022-09-22T14:19:57.524Z,15.21
2022-09-22T14:22:28.781Z,15.02
2022-09-22T14:24:58.869Z,15.74
2022-09-22T14:27:32.289Z,15.87
2022-09-22T14:30:00.985Z,15.25
2022-09-22T14:32:36.155Z,15.57
2022-09-22T14:35:07.427Z,15.52
2022-09-22T14:37:39.400Z,15.23
2022-09-22T14:40:15.634Z,15.12
2022-09-22T14:42:43.835Z,15.51
2022-09-22T14:45:21.167Z,15.65
2022-09-22T14:48:19.335Z,15.69
2022-09-22T14:50:49.865Z,15.72
2022-09-22T14:53:22.957Z,15.68
2022-09-22T14:55:54.652Z,15.60
2022-09-22T14:58:25.350Z,15.68
2022-09-22T15:01:14.726Z,15.98
2022-09-22T15:03:46.591Z,15.94
2022-09-22T15:06:16.288Z,15.95
2022-09-22T15:08:51.227Z,16.03
2022-09-22T15:11:19.918Z,16.04
2022-09-22T15:13:50.884Z,15.96
2022-09-22T15:16:43.614Z,15.85
2022-09-22T15:19:13.207Z,15.81
2022-09-22T15:21:47.994Z,15.57
2022-09-22T15:24:26.821Z,15.06
2022-09-22T15:26:57.689Z,15.61
2022-09-22T15:29:26.341Z,15.90
2022-09-22T15:31:55.979Z,15.79
2022-09-22T15:34:23.989Z,15.30
2022-09-22T15:36:55.943Z,15.83
2022-09-22T15:39:26.057Z,15.78
2022-09-22T15:41:54.988Z,15.74
2022-09-22T15:44:22.919Z,14.72
2022-09-22T15:46:54.186Z,14.35
2022-09-22T15:49:26.282Z,15.57
2022-09-22T15:51:56.224Z,15.59
2022-09-22T15:54:26.906Z,15.76
2022-09-22T15:56:57.013Z,15.73
2022-09-22T15:59:28.283Z,15.53
2022-09-22T16:01:57.420Z,14.38
2022-09-22T16:04:33.054Z,14.94
2022-09-22T16:07:04.132Z,15.57
2022-09-22T16:09:33.792Z,15.40
2022-09-22T16:12:03.415Z,14.86
2022-09-22T16:14:31.341Z,14.09
2022-09-22T16:16:59.343Z,15.33
2022-09-22T16:19:28.368Z,15.25
2022-09-22T16:21:56.280Z,14.91
2022-09-22T16:24:26.425Z,14.90
2022-09-22T16:26:56.560Z,14.97
2022-09-22T16:29:25.083Z,14.85
2022-09-22T16:31:53.229Z,14.72
2022-09-22T16:34:21.188Z,13.85
2022-09-22T16:36:49.192Z,14.68
2022-09-22T16:39:17.282Z,14.56
2022-09-22T16:41:46.577Z,14.39
2022-09-22T16:44:16.849Z,13.22
2022-09-22T16:46:44.674Z,14.16
2022-09-22T16:49:16.260Z,13.97
2022-09-22T16:51:46.855Z,13.95
2022-09-22T16:54:14.982Z,13.49
2022-09-22T16:56:44.446Z,13.72
2022-09-22T16:59:15.234Z,13.73
2022-09-22T17:01:44.871Z,13.63
2022-09-22T17:04:15.818Z,13.40
2022-09-22T17:06:44.508Z,13.38
2022-09-22T17:09:14.063Z,12.66
2022-09-22T17:11:43.831Z,13.25
2022-09-22T17:14:13.625Z,13.06
2022-09-22T17:16:42.881Z,12.96
2022-09-22T17:19:18.325Z,12.75
2022-09-22T17:21:47.964Z,12.77
2022-09-22T17:24:16.564Z,12.75
2022-09-22T17:26:47.864Z,12.79
2022-09-22T17:29:17.017Z,12.65
2022-09-22T17:31:47.240Z,12.51
2022-09-22T17:34:17.276Z,12.33
2022-09-22T17:36:45.615Z,11.82
2022-09-22T17:39:14.099Z,11.22
2022-09-22T17:41:45.493Z,11.78
2022-09-22T17:44:14.769Z,11.58
2022-09-22T17:47:02.700Z,11.44
2022-09-22T17:49:49.393Z,11.38
2022-09-22T17:52:35.537Z,11.39
2022-09-22T17:55:08.076Z,11.35
2022-09-22T17:57:37.887Z,11.32
2022-09-22T18:00:08.420Z,11.15
2022-09-22T18:02:38.860Z,11.07
2022-09-22T18:05:11.303Z,10.47
2022-09-22T18:07:40.495Z,10.93
2022-09-22T18:10:10.479Z,10.78
2022-09-22T18:12:38.973Z,10.93
2022-09-22T18:15:08.358Z,10.98
2022-09-22T18:17:41.320Z,10.99
2022-09-22T18:20:12.531Z,10.75
2022-09-22T18:22:41.378Z,10.82
2022-09-22T18:25:10.837Z,10.65
2022-09-22T18:27:40.237Z,10.70
2022-09-22T18:30:11.337Z,10.64
2022-09-22T18:32:41.336Z,10.00
2022-09-22T18:35:11.231Z,10.28
2022-09-22T18:37:39.324Z,9.78
2022-09-22T18:40:08.737Z,10.01
2022-09-22T18:42:37.110Z,9.48
2022-09-22T18:45:05.592Z,10.15
2022-09-22T18:47:39.677Z,10.15
2022-09-22T18:50:08.683Z,9.68
2022-09-22T18:52:42.620Z,9.56
2022-09-22T18:55:18.801Z,10.08
2022-09-22T18:57:48.421Z,10.13
2022-09-22T19:00:21.172Z,9.99
2022-09-22T19:02:50.321Z,9.89
2022-09-22T19:05:18.908Z,9.76
2022-09-22T19:07:48.518Z,9.84
2022-09-22T19:10:22.211Z,9.65
2022-09-22T19:12:50.775Z,9.73
2022-09-22T19:15:19.945Z,9.58
2022-09-22T19:17:49.874Z,9.63
2022-09-22T19:20:20.967Z,8.30
2022-09-22T19:22:52.432Z,9.46
2022-09-22T19:25:21.619Z,9.36
2022-09-22T19:27:50.359Z,9.39
2022-09-22T19:30:22.875Z,9.18
2022-09-22T19:32:52.714Z,8.83
2022-09-22T19:35:20.717Z,9.34
2022-09-22T19:37:51.993Z,9.31
2022-09-22T19:40:20.827Z,9.31
2022-09-22T19:42:49.863Z,9.31
2022-09-22T19:45:18.601Z,9.29
2022-09-22T19:47:48.139Z,9.01
2022-09-22T19:50:16.541Z,9.18
2022-09-22T19:52:44.613Z,9.14
2022-09-22T19:55:16.071Z,9.15
2022-09-22T19:57:48.837Z,8.95
2022-09-22T20:00:25.630Z,9.12
2022-09-22T20:02:58.620Z,7.68
2022-09-22T20:05:29.362Z,9.02
2022-09-22T20:07:56.986Z,8.94
2022-09-22T20:10:26.592Z,8.80
2022-09-22T20:12:55.283Z,8.94
2022-09-22T20:15:23.331Z,8.72
2022-09-22T20:17:51.399Z,8.85
2022-09-22T20:20:21.708Z,8.84
2022-09-22T20:22:53.112Z,8.77
2022-09-22T20:25:24.937Z,8.66
2022-09-22T20:27:56.194Z,8.68
2022-09-22T20:30:24.407Z,8.62
2022-09-22T20:32:52.620Z,7.77
2022-09-22T20:35:22.111Z,7.70
2022-09-22T20:37:51.704Z,8.52
2022-09-22T20:40:22.073Z,7.83
2022-09-22T20:42:51.385Z,8.28
2022-09-22T20:45:23.021Z,8.43
2022-09-22T20:47:51.131Z,8.46
2022-09-22T20:50:19.650Z,8.46
2022-09-22T20:52:47.896Z,7.62
2022-09-22T20:55:16.258Z,8.36
2022-09-22T20:57:44.272Z,8.38
2022-09-22T21:00:15.384Z,8.31
2022-09-22T21:02:45.107Z,7.51
2022-09-22T21:05:13.253Z,8.16
2022-09-22T21:07:41.674Z,8.26
2022-09-22T21:10:28.106Z,8.04
2022-09-22T21:12:56.368Z,8.14
2022-09-22T21:15:24.583Z,8.11
2022-09-22T21:17:54.118Z,6.67
2022-09-22T21:20:22.632Z,7.96
2022-09-22T21:22:51.196Z,7.87
2022-09-22T21:25:20.180Z,7.81
2022-09-22T21:27:48.321Z,7.90
2022-09-22T21:30:16.561Z,7.84
2022-09-22T21:32:44.707Z,7.77
2022-09-22T21:35:16.745Z,7.67
2022-09-22T21:37:45.140Z,7.65
2022-09-22T21:40:13.882Z,7.77
2022-09-22T21:42:42.081Z,7.96
2022-09-22T21:45:10.933Z,8.06
2022-09-22T21:47:38.870Z,7.93
2022-09-22T21:50:07.901Z,7.69
2022-09-22T21:52:38.489Z,7.74
2022-09-22T21:55:07.732Z,7.44
2022-09-22T21:57:35.737Z,7.68
2022-09-22T22:00:05.106Z,7.64
2022-09-22T22:02:53.771Z,7.29
2022-09-22T22:05:21.875Z,7.60
2022-09-22T22:07:51.115Z,7.58
2022-09-22T22:10:19.240Z,7.03
2022-09-22T22:12:47.199Z,7.40
2022-09-22T22:15:15.571Z,7.46
2022-09-22T22:17:43.460Z,6.75
2022-09-22T22:20:11.443Z,7.48
2022-09-22T22:22:39.508Z,7.44
2022-09-22T22:25:13.952Z,7.41
2022-09-22T22:27:45.076Z,7.37
2022-09-22T22:30:14.401Z,7.24
2022-09-22T22:32:42.407Z,6.92
2022-09-22T22:35:11.758Z,6.60
2022-09-22T22:37:40.129Z,6.32
2022-09-22T22:40:10.729Z,7.03
2022-09-22T22:42:38.680Z,6.97
2022-09-22T22:45:07.281Z,7.14
2022-09-22T22:47:35.202Z,7.22
2022-09-22T22:50:03.223Z,7.21
2022-09-22T22:52:31.358Z,7.22
2022-09-22T22:54:59.347Z,7.20
2022-09-22T22:57:29.095Z,7.02
2022-09-22T22:59:57.336Z,7.16
2022-09-22T23:02:25.683Z,6.93
2022-09-22T23:04:54.436Z,7.10
2022-09-22T23:07:22.617Z,6.74
2022-09-22T23:10:06.291Z,6.97
2022-09-22T23:12:37.155Z,6.74
2022-09-22T23:15:05.910Z,6.73
2022-09-22T23:17:34.392Z,6.83
2022-09-22T23:20:03.281Z,6.94
2022-09-22T23:22:31.675Z,6.74
2022-09-22T23:25:00.189Z,6.74
2022-09-22T23:27:29.266Z,6.89
2022-09-22T23:29:59.037Z,6.38
2022-09-22T23:32:27.050Z,6.77
2022-09-22T23:34:55.298Z,6.85
2022-09-22T23:37:24.747Z,6.76
2022-09-22T23:39:53.278Z,6.77
2022-09-22T23:42:21.166Z,6.44
2022-09-22T23:44:49.240Z,6.46
2022-09-22T23:47:18.852Z,5.73
2022-09-22T23:49:46.914Z,5.93
2022-09-22T23:52:14.813Z,5.95
2022-09-22T23:54:42.746Z,6.70
2022-09-22T23:57:10.713Z,6.65
2022-09-22T23:59:38.597Z,6.47
